Time;durP1;ratioP1;P1;durP2;ratioP2;P2;SDS_P1;SDS_P2;PMS_P1;PMS_P2;Temp;Humidity;BMP_temperature;BMP_pressure;BME280_temperature;BME280_humidity;BME280_pressure;Samples;Min_cycle;Max_cycle;Signal;HPM_P1;HPM_P2
2021/12/23 00:00:06;;;;;;;14.65;5.80;;;-10.30;99.90;;;;;;5033235;28;20872;-81
2021/12/23 00:02:35;;;;;;;12.77;5.78;;;-10.20;99.90;;;;;;5048831;28;20390;-83
2021/12/23 00:05:03;;;;;;;14.05;6.10;;;-10.20;99.90;;;;;;5049707;28;20397;-82
2021/12/23 00:07:30;;;;;;;11.90;5.73;;;-10.20;99.90;;;;;;5034155;28;20421;-83
2021/12/23 00:10:07;;;;;;;14.18;6.15;;;-10.30;99.90;;;;;;5033915;28;20404;-84
2021/12/23 00:12:41;;;;;;;12.57;6.07;;;-10.40;99.90;;;;;;5033059;28;20459;-83
2021/12/23 00:15:39;;;;;;;13.10;6.20;;;-10.30;99.90;;;;;;5037184;28;20408;-83
2021/12/23 00:18:04;;;;;;;12.80;5.90;;;-10.30;99.90;;;;;;5034187;28;20476;-82
2021/12/23 00:25:52;;;;;;;12.45;5.82;;;-10.20;99.90;;;;;;5034009;28;20579;-83
2021/12/23 00:28:21;;;;;;;15.23;6.47;;;-10.30;99.90;;;;;;5049164;28;20393;-82
2021/12/23 00:30:49;;;;;;;14.90;6.63;;;-10.30;99.90;;;;;;5032800;28;20934;-82
2021/12/23 00:33:17;;;;;;;13.35;6.57;;;-10.20;99.90;;;;;;5032479;28;20768;-82
2021/12/23 00:35:44;;;;;;;16.63;7.03;;;-10.20;99.90;;;;;;5048255;28;20717;-82
2021/12/23 00:38:21;;;;;;;12.45;6.13;;;-10.20;99.90;;;;;;5033952;28;20787;-83
2021/12/23 00:40:48;;;;;;;13.13;5.95;;;-10.30;99.90;;;;;;5048054;28;20525;-81
2021/12/23 00:43:16;;;;;;;13.63;6.45;;;-10.30;99.90;;;;;;5053600;28;20794;-82
2021/12/23 00:45:43;;;;;;;13.48;6.28;;;-10.30;99.90;;;;;;5052708;28;20419;-82
2021/12/23 00:48:11;;;;;;;14.27;6.57;;;-10.20;99.90;;;;;;5052448;28;20893;-83
2021/12/23 00:50:38;;;;;;;16.00;6.60;;;-10.20;99.90;;;;;;5053614;28;20391;-82
2021/12/23 00:53:08;;;;;;;14.45;6.35;;;-10.20;99.90;;;;;;5053510;28;20433;-84
2021/12/23 00:55:36;;;;;;;13.48;5.38;;;-10.30;99.90;;;;;;5052579;28;20441;-84
2021/12/23 00:58:04;;;;;;;12.98;5.80;;;-10.30;99.90;;;;;;5052182;28;20711;-83
2021/12/23 01:00:32;;;;;;;13.43;6.07;;;-10.40;99.90;;;;;;5053438;28;20487;-84
2021/12/23 01:03:01;;;;;;;13.93;5.93;;;-10.40;99.90;;;;;;5052247;28;20704;-83
2021/12/23 01:05:29;;;;;;;12.27;6.13;;;-10.30;99.90;;;;;;5051858;28;20435;-81
2021/12/23 01:07:57;;;;;;;13.00;5.88;;;-10.30;99.90;;;;;;5048482;28;20394;-82
2021/12/23 01:10:25;;;;;;;13.93;5.70;;;-10.30;99.90;;;;;;5033259;28;20419;-82
2021/12/23 01:13:01;;;;;;;13.38;6.05;;;-10.30;99.90;;;;;;5033276;28;20401;-82
2021/12/23 01:18:10;;;;;;;14.60;7.20;;;-10.30;99.90;;;;;;5032905;28;20386;-83
2021/12/23 01:20:45;;;;;;;18.42;8.23;;;-10.50;99.90;;;;;;5032895;28;20445;-82
2021/12/23 01:23:13;;;;;;;17.73;8.52;;;-10.50;99.90;;;;;;5032947;28;20443;-83
2021/12/23 01:25:40;;;;;;;15.05;8.10;;;-10.50;99.90;;;;;;5032422;28;20394;-81
2021/12/23 01:28:08;;;;;;;17.75;7.72;;;-10.50;99.90;;;;;;5032835;28;20444;-82
2021/12/23 01:30:37;;;;;;;17.52;8.77;;;-10.50;99.90;;;;;;5031366;28;20434;-83
2021/12/23 01:33:07;;;;;;;18.83;9.17;;;-10.40;99.90;;;;;;5047796;28;20484;-83
2021/12/23 01:35:36;;;;;;;19.97;8.67;;;-10.50;99.90;;;;;;5031603;28;20428;-82
2021/12/23 01:38:04;;;;;;;19.13;8.33;;;-10.60;99.90;;;;;;5032709;28;20413;-83
2021/12/23 01:40:31;;;;;;;21.42;9.80;;;-10.70;99.90;;;;;;5031553;28;20429;-82
2021/12/23 01:43:00;;;;;;;20.02;9.07;;;-10.60;99.90;;;;;;5032716;28;20394;-84
2021/12/23 01:45:30;;;;;;;18.35;8.50;;;-10.70;99.90;;;;;;5031142;28;20741;-82
2021/12/23 01:47:58;;;;;;;19.80;8.90;;;-10.80;99.90;;;;;;5031182;28;20761;-82
2021/12/23 01:50:28;;;;;;;20.08;9.77;;;-10.70;99.90;;;;;;5031265;28;20759;-83
2021/12/23 01:52:58;;;;;;;23.35;10.73;;;-10.60;99.90;;;;;;5032575;28;20636;-83
2021/12/23 01:55:26;;;;;;;18.83;8.60;;;-10.60;99.90;;;;;;5032317;28;20734;-82
2021/12/23 01:57:54;;;;;;;21.13;9.70;;;-10.70;99.90;;;;;;5031137;28;20391;-83
2021/12/23 02:00:26;;;;;;;20.85;10.23;;;-10.60;99.90;;;;;;5032229;28;20413;-83
2021/12/23 02:02:56;;;;;;;21.88;10.30;;;-10.50;99.90;;;;;;5031116;28;20480;-84
2021/12/23 02:05:24;;;;;;;20.95;10.30;;;-10.60;99.90;;;;;;5030926;28;20455;-85
2021/12/23 02:07:52;;;;;;;20.75;9.40;;;-10.40;99.90;;;;;;5047547;28;20401;-85
2021/12/23 02:10:19;;;;;;;21.00;9.68;;;-10.40;99.90;;;;;;5032138;28;20421;-83
2021/12/23 02:12:48;;;;;;;18.60;9.55;;;-10.50;99.90;;;;;;5047456;28;20432;-84
2021/12/23 02:15:17;;;;;;;22.07;10.47;;;-10.40;99.90;;;;;;5031632;28;20406;-83
2021/12/23 02:17:46;;;;;;;19.43;9.07;;;-10.40;99.90;;;;;;5047381;28;20480;-83
2021/12/23 02:20:17;;;;;;;21.90;10.37;;;-10.30;99.90;;;;;;5014331;28;20481;-84
2021/12/23 02:22:45;;;;;;;21.25;10.50;;;-10.20;99.90;;;;;;5032025;28;20393;-82
2021/12/23 02:25:14;;;;;;;24.33;10.82;;;-10.00;99.90;;;;;;5031589;28;20390;-82
2021/12/23 02:27:42;;;;;;;21.13;10.55;;;-10.00;99.90;;;;;;5031715;28;20451;-83
2021/12/23 02:30:14;;;;;;;20.85;10.05;;;-9.90;99.90;;;;;;5030404;28;20432;-83
2021/12/23 02:32:42;;;;;;;24.33;11.80;;;-10.10;99.90;;;;;;5030474;28;20409;-83
2021/12/23 02:35:14;;;;;;;20.10;9.77;;;-10.00;99.90;;;;;;5031785;28;20448;-83
2021/12/23 02:37:43;;;;;;;22.98;11.15;;;-10.00;99.90;;;;;;5047119;28;20824;-84
2021/12/23 02:40:25;;;;;;;20.67;9.70;;;-10.20;99.90;;;;;;5030466;28;20386;-83
2021/12/23 02:42:53;;;;;;;23.88;11.00;;;-10.40;99.90;;;;;;5046962;28;20400;-82
2021/12/23 02:45:20;;;;;;;20.42;9.88;;;-10.40;99.90;;;;;;5031685;28;20479;-82
2021/12/23 02:47:48;;;;;;;21.58;10.02;;;-10.50;99.90;;;;;;5031561;28;20405;-82
2021/12/23 02:50:15;;;;;;;22.30;9.90;;;-10.50;99.90;;;;;;5031694;28;20386;-82
2021/12/23 02:52:43;;;;;;;22.23;10.33;;;-10.50;99.90;;;;;;5031594;28;20457;-85
2021/12/23 02:55:11;;;;;;;25.75;11.02;;;-10.50;99.90;;;;;;5030050;28;20933;-82
2021/12/23 02:57:38;;;;;;;19.58;9.70;;;-10.50;99.90;;;;;;5030412;28;20390;-84
2021/12/23 03:00:07;;;;;;;20.50;9.63;;;-10.40;99.90;;;;;;5035370;28;20396;-83
2021/12/23 03:02:37;;;;;;;23.38;10.40;;;-10.50;99.90;;;;;;5035595;28;20474;-83
2021/12/23 03:05:07;;;;;;;21.35;9.23;;;-10.50;99.90;;;;;;5035766;28;20978;-85
2021/12/23 03:07:35;;;;;;;19.67;9.00;;;-10.50;99.90;;;;;;5034587;28;20416;-84
2021/12/23 03:10:07;;;;;;;19.50;8.70;;;-10.50;99.90;;;;;;5034289;28;20868;-83
2021/12/23 03:12:35;;;;;;;21.25;9.38;;;-10.50;99.90;;;;;;5034063;28;20451;-82
2021/12/23 03:15:04;;;;;;;22.75;10.77;;;-10.50;99.90;;;;;;5034127;28;20408;-82
2021/12/23 03:17:31;;;;;;;21.93;9.80;;;-10.50;99.90;;;;;;5033867;28;20876;-83
2021/12/23 03:19:59;;;;;;;21.60;9.82;;;-10.40;99.90;;;;;;5033851;28;20439;-83
2021/12/23 03:22:27;;;;;;;21.88;10.02;;;-10.30;99.90;;;;;;5050453;28;20811;-82
2021/12/23 03:24:55;;;;;;;23.48;10.10;;;-10.40;99.90;;;;;;5050500;28;20420;-83
2021/12/23 03:27:22;;;;;;;25.10;10.18;;;-10.40;99.90;;;;;;5050396;28;20393;-81
2021/12/23 03:29:50;;;;;;;19.95;9.02;;;-10.40;99.90;;;;;;5034965;28;20382;-84
2021/12/23 03:32:18;;;;;;;22.63;9.60;;;-10.50;99.90;;;;;;5034906;28;20389;-82
2021/12/23 03:34:45;;;;;;;22.30;9.75;;;-10.50;99.90;;;;;;5035004;28;20386;-84
2021/12/23 03:37:13;;;;;;;18.63;8.32;;;-10.40;99.90;;;;;;5034812;28;20397;-83
2021/12/23 03:39:41;;;;;;;18.95;8.45;;;-10.50;99.90;;;;;;5037183;28;20424;-85
2021/12/23 03:42:08;;;;;;;24.50;10.50;;;-10.60;99.90;;;;;;5035005;28;20852;-83
2021/12/23 03:44:36;;;;;;;17.73;7.78;;;-10.50;99.90;;;;;;5033463;28;20385;-83
2021/12/23 03:47:04;;;;;;;16.60;7.85;;;-10.60;99.90;;;;;;5034715;28;20399;-84
2021/12/23 03:49:31;;;;;;;18.90;8.13;;;-10.50;99.90;;;;;;5034589;28;20430;-84
2021/12/23 03:51:58;;;;;;;20.23;8.95;;;-10.60;99.90;;;;;;5034731;28;20393;-83
2021/12/23 03:54:26;;;;;;;19.30;8.95;;;-10.50;99.90;;;;;;5049815;28;20439;-83
2021/12/23 03:56:53;;;;;;;17.17;8.13;;;-10.40;99.90;;;;;;5060173;28;20475;-82
2021/12/23 03:59:21;;;;;;;21.42;9.00;;;-10.30;99.90;;;;;;5053275;28;20388;-83
2021/12/23 04:01:49;;;;;;;19.67;8.57;;;-10.50;99.90;;;;;;5050163;28;20899;-83
2021/12/23 04:04:16;;;;;;;17.90;8.38;;;-10.30;99.90;;;;;;5033482;28;20385;-83
2021/12/23 04:06:45;;;;;;;18.48;8.75;;;-10.20;99.90;;;;;;5033297;28;20439;-83
2021/12/23 04:09:12;;;;;;;18.65;8.93;;;-10.20;99.90;;;;;;5049152;28;20876;-83
2021/12/23 04:11:40;;;;;;;18.40;8.77;;;-10.10;99.90;;;;;;5016128;28;20398;-83
2021/12/23 04:14:07;;;;;;;18.25;9.02;;;-10.20;99.90;;;;;;5042867;28;20401;-82
2021/12/23 04:16:35;;;;;;;20.05;9.45;;;-10.40;99.90;;;;;;5033952;28;20420;-83
2021/12/23 04:19:08;;;;;;;25.15;11.73;;;-10.30;99.90;;;;;;5049576;28;20455;-82
2021/12/23 04:21:40;;;;;;;24.52;12.15;;;-10.30;99.90;;;;;;5034139;28;20386;-84
2021/12/23 04:24:09;;;;;;;24.10;11.60;;;-10.20;99.90;;;;;;5057632;28;20398;-82
2021/12/23 04:26:38;;;;;;;23.85;11.77;;;-10.40;99.90;;;;;;5053819;28;20873;-84
2021/12/23 04:29:06;;;;;;;24.37;11.50;;;-10.50;99.90;;;;;;5053934;28;20395;-83
2021/12/23 04:31:34;;;;;;;24.95;11.73;;;-10.60;99.90;;;;;;5036191;28;20433;-84
2021/12/23 04:34:02;;;;;;;24.37;11.73;;;-10.70;99.90;;;;;;5053833;28;20446;-84
2021/12/23 04:36:30;;;;;;;32.00;13.80;;;-10.70;99.90;;;;;;5053643;28;20392;-82
2021/12/23 04:39:01;;;;;;;28.20;13.65;;;-10.60;99.90;;;;;;5052375;28;20478;-83
2021/12/23 04:41:30;;;;;;;28.15;14.10;;;-10.60;99.90;;;;;;5043915;28;20408;-82
2021/12/23 04:43:58;;;;;;;25.80;12.67;;;-10.50;99.90;;;;;;5062517;28;20383;-82
2021/12/23 04:46:26;;;;;;;27.45;13.18;;;-10.50;99.90;;;;;;5052273;28;20392;-83
2021/12/23 04:48:53;;;;;;;25.38;13.13;;;-10.50;99.90;;;;;;5050136;28;20434;-83
2021/12/23 04:51:21;;;;;;;27.88;12.95;;;-10.40;99.90;;;;;;5033302;28;20409;-83
2021/12/23 04:53:49;;;;;;;25.52;12.93;;;-10.50;99.90;;;;;;5033528;28;20471;-83
2021/12/23 04:56:18;;;;;;;25.35;12.32;;;-10.50;99.90;;;;;;5048939;28;20404;-83
2021/12/23 04:58:45;;;;;;;24.50;11.77;;;-10.50;99.90;;;;;;5033527;28;20439;-83
2021/12/23 05:01:21;;;;;;;24.73;12.82;;;-10.50;99.90;;;;;;5048750;28;20393;-83
2021/12/23 05:03:49;;;;;;;25.35;12.88;;;-10.60;99.90;;;;;;5048718;28;20385;-83
2021/12/23 05:06:17;;;;;;;24.88;12.23;;;-10.60;99.90;;;;;;5048509;28;20471;-82
2021/12/23 05:08:45;;;;;;;25.00;12.05;;;-10.60;99.90;;;;;;5031855;28;20750;-82
2021/12/23 05:11:12;;;;;;;24.67;12.80;;;-10.60;99.90;;;;;;5048506;28;20890;-82
2021/12/23 05:13:40;;;;;;;26.83;13.98;;;-10.60;99.90;;;;;;5048396;28;20417;-83
2021/12/23 05:16:07;;;;;;;26.45;13.23;;;-10.70;99.90;;;;;;5031723;28;20425;-83
2021/12/23 05:18:35;;;;;;;27.58;13.13;;;-10.70;99.90;;;;;;5032002;28;20390;-84
2021/12/23 05:21:03;;;;;;;25.77;12.17;;;-10.70;99.90;;;;;;5032782;28;20912;-83
2021/12/23 05:23:30;;;;;;;24.30;12.32;;;-10.80;99.90;;;;;;5048219;28;20471;-82
2021/12/23 05:25:58;;;;;;;24.27;12.32;;;-10.90;99.90;;;;;;5032824;28;20448;-84
2021/12/23 05:28:25;;;;;;;25.35;12.25;;;-10.90;99.90;;;;;;5038560;28;20900;-83
2021/12/23 05:30:53;;;;;;;24.45;12.05;;;-10.90;99.90;;;;;;5031569;28;20389;-83
2021/12/23 05:33:20;;;;;;;22.90;11.77;;;-11.00;99.90;;;;;;5014989;28;20908;-82
2021/12/23 05:35:48;;;;;;;24.10;11.93;;;-11.00;99.90;;;;;;5047984;28;20440;-83
2021/12/23 05:38:15;;;;;;;23.83;12.15;;;-11.10;99.90;;;;;;5032601;28;20477;-84
2021/12/23 05:40:43;;;;;;;24.25;11.68;;;-11.10;99.90;;;;;;5031501;28;20429;-83
2021/12/23 05:43:10;;;;;;;23.42;11.95;;;-11.20;99.90;;;;;;5032483;28;20482;-82
2021/12/23 05:45:38;;;;;;;24.45;12.38;;;-11.20;99.90;;;;;;5031295;28;20791;-84
2021/12/23 05:48:05;;;;;;;24.53;12.23;;;-11.10;99.90;;;;;;5032551;28;20447;-82
2021/12/23 05:50:36;;;;;;;24.50;12.68;;;-10.90;99.90;;;;;;5042861;28;20403;-84
2021/12/23 05:53:03;;;;;;;23.50;12.60;;;-10.80;99.90;;;;;;5035727;28;20842;-83
2021/12/23 05:55:31;;;;;;;27.15;12.73;;;-10.80;99.90;;;;;;5032542;28;20440;-83
2021/12/23 05:57:58;;;;;;;24.17;11.85;;;-10.90;99.90;;;;;;5031125;28;20390;-82
2021/12/23 06:00:29;;;;;;;23.83;11.35;;;-10.90;99.90;;;;;;5038201;28;20388;-83
2021/12/23 06:02:58;;;;;;;23.83;11.52;;;-11.00;99.90;;;;;;5051589;28;20391;-81
2021/12/23 06:05:27;;;;;;;22.40;11.37;;;-11.10;99.90;;;;;;5067273;28;20716;-83
2021/12/23 06:07:55;;;;;;;24.98;11.73;;;-11.10;99.90;;;;;;5034156;28;20389;-81
2021/12/23 06:10:22;;;;;;;22.73;11.70;;;-11.10;99.90;;;;;;5031886;28;20396;-82
2021/12/23 06:12:50;;;;;;;24.33;11.73;;;-11.20;99.90;;;;;;5032128;28;20393;-83
2021/12/23 06:15:17;;;;;;;23.55;11.40;;;-11.20;99.90;;;;;;5031635;28;20464;-83
2021/12/23 06:17:45;;;;;;;24.40;12.45;;;-11.20;99.90;;;;;;5032106;28;20477;-84
2021/12/23 06:20:13;;;;;;;26.05;12.60;;;-11.30;99.90;;;;;;5030721;28;20386;-83
2021/12/23 06:22:41;;;;;;;26.77;12.98;;;-11.30;99.90;;;;;;5031944;28;20480;-83
2021/12/23 06:25:10;;;;;;;26.27;12.97;;;-11.40;99.90;;;;;;5047334;28;20802;-82
2021/12/23 06:27:39;;;;;;;25.85;12.85;;;-11.40;99.90;;;;;;5032037;28;20392;-84
2021/12/23 06:30:17;;;;;;;26.75;13.10;;;-11.50;99.90;;;;;;5035414;28;20395;-83
2021/12/23 06:32:49;;;;;;;29.25;14.45;;;-11.50;99.90;;;;;;5044164;28;20407;-83
2021/12/23 06:35:17;;;;;;;30.25;14.80;;;-11.40;99.90;;;;;;5050254;28;20431;-83
2021/12/23 06:37:45;;;;;;;33.08;15.23;;;-11.40;99.90;;;;;;5049495;28;20922;-82
2021/12/23 06:40:13;;;;;;;29.98;14.88;;;-11.30;99.90;;;;;;5031468;28;20759;-82
2021/12/23 06:42:41;;;;;;;28.88;15.18;;;-11.30;99.90;;;;;;5030294;28;20416;-83
2021/12/23 06:45:10;;;;;;;27.92;14.07;;;-11.30;99.90;;;;;;5046751;28;20397;-82
2021/12/23 06:47:38;;;;;;;28.13;15.13;;;-11.30;99.90;;;;;;5031454;28;20416;-83
2021/12/23 06:50:07;;;;;;;28.38;14.57;;;-11.20;99.90;;;;;;5031338;28;20421;-82
2021/12/23 06:52:36;;;;;;;29.25;15.10;;;-11.30;99.90;;;;;;5031443;28;20502;-81
2021/12/23 06:55:06;;;;;;;29.92;15.38;;;-11.40;99.90;;;;;;5031451;28;20406;-83
2021/12/23 06:57:33;;;;;;;31.25;15.35;;;-11.30;99.90;;;;;;5031360;28;20443;-82
2021/12/23 07:00:02;;;;;;;28.67;14.75;;;-11.30;99.90;;;;;;5031413;28;20827;-82
2021/12/23 07:02:31;;;;;;;29.05;14.18;;;-11.20;99.90;;;;;;5031193;28;20386;-83
2021/12/23 07:04:59;;;;;;;29.20;14.68;;;-11.30;99.90;;;;;;5031412;28;20428;-83
2021/12/23 07:07:29;;;;;;;29.98;15.82;;;-11.30;99.90;;;;;;5046633;28;20394;-82
2021/12/23 07:09:56;;;;;;;28.65;13.30;;;-11.30;99.90;;;;;;5031477;28;20586;-82
2021/12/23 07:12:24;;;;;;;26.63;13.87;;;-11.40;99.90;;;;;;5031120;28;20389;-83
2021/12/23 07:14:52;;;;;;;30.00;14.82;;;-11.50;99.90;;;;;;5029985;28;20432;-84
2021/12/23 07:17:23;;;;;;;28.63;15.10;;;-11.60;99.90;;;;;;5045923;28;20741;-83
2021/12/23 07:19:51;;;;;;;28.13;14.35;;;-11.60;99.90;;;;;;5029871;28;20393;-83
2021/12/23 07:22:18;;;;;;;30.37;14.50;;;-11.70;99.90;;;;;;5031034;28;20788;-82
2021/12/23 07:24:46;;;;;;;28.90;14.43;;;-11.60;99.90;;;;;;5031197;28;20389;-82
2021/12/23 07:27:13;;;;;;;28.10;14.40;;;-11.50;99.90;;;;;;5029891;28;20767;-82
2021/12/23 07:29:41;;;;;;;28.50;14.27;;;-11.40;99.90;;;;;;5031003;28;20389;-83
2021/12/23 07:32:09;;;;;;;30.60;15.57;;;-11.40;99.90;;;;;;5031151;28;20397;-83
2021/12/23 07:34:39;;;;;;;28.23;14.20;;;-11.40;99.90;;;;;;5029640;28;20451;-82
2021/12/23 07:37:08;;;;;;;29.92;16.10;;;-11.30;99.90;;;;;;5033092;28;20432;-83
2021/12/23 07:39:37;;;;;;;29.52;15.00;;;-11.30;99.90;;;;;;5059478;28;20386;-82
2021/12/23 07:42:26;;;;;;;37.00;19.48;;;-11.40;99.90;;;;;;5069559;28;20396;-82
2021/12/23 07:44:54;;;;;;;40.07;22.10;;;-11.50;99.90;;;;;;5071368;28;20883;-83
2021/12/23 07:47:22;;;;;;;40.28;21.92;;;-11.50;99.90;;;;;;5073318;28;20440;-83
2021/12/23 07:49:50;;;;;;;37.33;21.65;;;-11.50;99.90;;;;;;5073580;28;20394;-83
2021/12/23 07:52:18;;;;;;;36.28;20.50;;;-11.40;99.90;;;;;;5056768;28;20386;-84
2021/12/23 07:54:45;;;;;;;33.42;17.85;;;-11.50;99.90;;;;;;5073135;28;20946;-82
2021/12/23 07:57:13;;;;;;;31.75;17.67;;;-11.50;99.90;;;;;;5073342;28;20390;-83
2021/12/23 07:59:41;;;;;;;30.03;16.03;;;-11.50;99.90;;;;;;5073133;28;20385;-82
2021/12/23 08:02:08;;;;;;;30.45;16.42;;;-11.50;99.90;;;;;;5053533;28;20398;-82
2021/12/23 08:04:36;;;;;;;28.55;16.30;;;-11.50;99.90;;;;;;5034513;28;20435;-82
2021/12/23 08:07:04;;;;;;;31.23;16.17;;;-11.40;99.90;;;;;;5054279;28;20392;-83
2021/12/23 08:09:32;;;;;;;33.17;16.30;;;-11.40;99.90;;;;;;5048735;28;20417;-82
2021/12/23 08:12:00;;;;;;;27.63;14.68;;;-11.50;99.90;;;;;;5049578;28;20476;-84
2021/12/23 08:14:27;;;;;;;29.33;15.52;;;-11.50;99.90;;;;;;5032891;28;20409;-83
2021/12/23 08:17:00;;;;;;;30.67;14.90;;;-11.40;99.90;;;;;;5049580;28;20485;-84
2021/12/23 08:19:28;;;;;;;26.42;14.45;;;-11.40;99.90;;;;;;5034020;28;20861;-82
2021/12/23 08:21:56;;;;;;;26.63;12.00;;;-11.30;99.90;;;;;;5052008;28;20392;-83
2021/12/23 08:24:23;;;;;;;25.33;13.17;;;-11.60;99.90;;;;;;5051254;28;20382;-83
2021/12/23 08:26:53;;;;;;;27.27;13.68;;;-11.70;99.90;;;;;;5087722;28;20420;-83
2021/12/23 08:29:21;;;;;;;29.08;14.10;;;-11.60;99.90;;;;;;5055736;28;20483;-81
2021/12/23 08:31:55;;;;;;;26.65;13.70;;;-11.70;99.90;;;;;;5072521;28;20386;-83
2021/12/23 08:34:24;;;;;;;25.20;12.27;;;-11.60;99.90;;;;;;5056199;28;20407;-81
2021/12/23 08:36:53;;;;;;;24.40;13.02;;;-11.70;99.90;;;;;;5052548;28;20434;-83
2021/12/23 08:39:21;;;;;;;24.13;12.23;;;-11.70;99.90;;;;;;5054045;28;20384;-82
2021/12/23 08:41:49;;;;;;;28.08;13.65;;;-11.70;99.90;;;;;;5040706;28;20393;-81
2021/12/23 08:44:17;;;;;;;26.00;14.52;;;-11.60;99.90;;;;;;5048475;28;20389;-82
2021/12/23 08:46:45;;;;;;;26.48;14.75;;;-11.60;99.90;;;;;;5035428;28;20405;-82
2021/12/23 08:49:13;;;;;;;28.75;15.98;;;-11.70;99.90;;;;;;5045581;28;20897;-84
2021/12/23 08:51:41;;;;;;;28.05;13.68;;;-11.50;99.90;;;;;;5048598;28;20431;-80
2021/12/23 08:54:09;;;;;;;24.88;13.40;;;-11.60;99.90;;;;;;5041293;28;20405;-82
2021/12/23 08:56:39;;;;;;;24.00;12.75;;;-11.50;99.90;;;;;;5042889;28;20418;-83
2021/12/23 08:59:06;;;;;;;25.02;13.18;;;-11.70;99.90;;;;;;5051435;28;20416;-81
2021/12/23 09:01:35;;;;;;;24.75;12.73;;;-11.70;99.90;;;;;;5051939;28;20392;-82
2021/12/23 09:04:03;;;;;;;26.17;14.50;;;-11.80;99.90;;;;;;5050884;28;20430;-84
2021/12/23 09:06:31;;;;;;;29.58;15.30;;;-11.60;99.90;;;;;;5051718;28;20441;-84
2021/12/23 09:08:58;;;;;;;30.10;14.88;;;-11.50;99.90;;;;;;5051828;28;20392;-81
2021/12/23 09:11:26;;;;;;;27.30;14.30;;;-11.50;99.90;;;;;;5068209;28;20572;-82
2021/12/23 09:13:54;;;;;;;28.20;15.30;;;-11.40;99.90;;;;;;5051625;28;20431;-82
2021/12/23 09:16:21;;;;;;;25.98;14.10;;;-11.40;99.90;;;;;;5050482;28;20515;-83
2021/12/23 09:18:49;;;;;;;27.30;13.98;;;-11.30;99.90;;;;;;5042777;28;20397;-84
2021/12/23 09:21:17;;;;;;;27.42;13.45;;;-11.40;99.90;;;;;;5051535;28;20384;-83
2021/12/23 09:24:01;;;;;;;27.95;12.98;;;-11.50;99.90;;;;;;5041863;28;20411;-83
2021/12/23 09:26:32;;;;;;;26.23;13.30;;;-11.50;99.90;;;;;;5033944;28;20497;-82
2021/12/23 09:34:13;;;;;;;30.70;15.35;;;-11.50;99.90;;;;;;5052357;28;20915;-83
2021/12/23 09:36:40;;;;;;;29.52;14.73;;;-11.50;99.90;;;;;;5051129;28;20384;-83
2021/12/23 09:39:11;;;;;;;28.67;14.50;;;-11.40;99.90;;;;;;5051187;28;20419;-82
2021/12/23 09:41:41;;;;;;;33.83;17.60;;;-11.50;99.90;;;;;;5052330;28;20399;-82
2021/12/23 09:44:10;;;;;;;31.98;16.80;;;-11.40;99.90;;;;;;5051371;28;20395;-83
2021/12/23 09:46:39;;;;;;;33.22;16.38;;;-11.30;99.90;;;;;;5047571;28;20477;-83
2021/12/23 09:49:07;;;;;;;29.58;15.55;;;-11.20;99.90;;;;;;5032229;28;20403;-83
2021/12/23 09:51:35;;;;;;;34.42;16.45;;;-11.30;99.90;;;;;;5047400;28;20382;-84
2021/12/23 09:54:08;;;;;;;34.72;16.33;;;-11.20;99.90;;;;;;5032335;28;20481;-84
2021/12/23 09:56:37;;;;;;;35.83;15.90;;;-11.10;99.90;;;;;;5032158;28;20421;-84
2021/12/23 09:59:07;;;;;;;33.95;16.88;;;-11.20;99.90;;;;;;5050170;28;20419;-83
2021/12/23 10:01:36;;;;;;;33.00;14.80;;;-11.00;99.90;;;;;;5063657;28;20408;-83
2021/12/23 10:04:04;;;;;;;36.63;16.70;;;-11.20;99.90;;;;;;5036346;28;20382;-82
2021/12/23 10:06:32;;;;;;;35.17;15.10;;;-11.20;99.90;;;;;;5060187;28;20944;-86
2021/12/23 10:09:00;;;;;;;36.70;17.77;;;-11.30;99.90;;;;;;5054244;28;20382;-83
2021/12/23 10:31:04;;;;;;;35.63;16.67;;;-11.00;99.90;;;;;;5046898;28;20408;-83
2021/12/23 10:37:05;;;;;;;36.17;16.90;;;-11.00;99.90;;;;;;5031948;28;20389;-81
2021/12/23 10:39:24;;;;;;;37.20;17.75;;;-10.90;99.90;;;;;;5031521;28;20389;-84
2021/12/23 10:42:14;;;;;;;41.17;20.10;;;-11.00;99.90;;;;;;5046807;28;20397;-84
2021/12/23 10:44:50;;;;;;;41.00;20.17;;;-11.00;99.90;;;;;;5031592;28;20386;-85
2021/12/23 10:47:43;;;;;;;43.80;22.40;;;-10.90;99.90;;;;;;5049067;28;20450;-81
2021/12/23 10:50:50;;;;;;;41.10;20.50;;;-10.90;99.90;;;;;;5057511;28;20393;-84
2021/12/23 10:53:45;;;;;;;41.33;21.23;;;-10.90;99.90;;;;;;5046580;28;20421;-84
2021/12/23 10:59:26;;;;;;;42.97;21.20;;;-10.80;99.90;;;;;;5031318;28;20866;-84
2021/12/23 11:02:12;;;;;;;40.15;18.95;;;-10.80;99.90;;;;;;5031361;28;20441;-82
2021/12/23 11:05:11;;;;;;;34.83;17.47;;;-10.80;99.90;;;;;;5046614;28;20488;-82
2021/12/23 11:07:45;;;;;;;37.85;19.52;;;-10.80;99.90;;;;;;5046790;28;20744;-84
2021/12/23 11:35:51;;;;;;;39.05;19.80;;;-10.40;99.90;;;;;;5053696;28;20408;-84
2021/12/23 11:38:31;;;;;;;38.55;21.25;;;-10.40;99.90;;;;;;5053450;28;20909;-82
2021/12/23 11:41:06;;;;;;;36.15;19.17;;;-10.30;99.90;;;;;;5054674;28;20391;-82
2021/12/23 11:43:52;;;;;;;37.58;20.55;;;-10.30;99.90;;;;;;5054737;28;20728;-83
2021/12/23 11:46:26;;;;;;;34.65;19.25;;;-10.30;99.90;;;;;;5054604;28;20389;-82
2021/12/23 11:48:56;;;;;;;37.53;19.88;;;-10.30;99.90;;;;;;5053291;28;20519;-83
2021/12/23 11:51:45;;;;;;;36.03;19.23;;;-10.20;99.90;;;;;;5054556;28;20858;-83
2021/12/23 11:54:17;;;;;;;35.42;19.67;;;-10.20;99.90;;;;;;5052429;28;20407;-83
2021/12/23 11:56:51;;;;;;;37.42;19.10;;;-10.20;99.90;;;;;;5055301;28;20411;-84
2021/12/23 11:59:20;;;;;;;35.95;18.40;;;-10.20;99.90;;;;;;5049390;28;20393;-84
2021/12/23 12:01:52;;;;;;;38.05;18.88;;;-10.10;99.90;;;;;;5048285;28;20452;-83
2021/12/23 12:04:24;;;;;;;35.65;19.15;;;-10.10;99.90;;;;;;5049772;28;20447;-84
2021/12/23 12:06:53;;;;;;;36.17;18.03;;;-10.00;99.90;;;;;;5034449;28;20455;-84
2021/12/23 12:09:27;;;;;;;38.28;20.48;;;-10.00;99.90;;;;;;5019669;28;20503;-84
2021/12/23 12:12:10;;;;;;;32.07;17.90;;;-9.90;99.90;;;;;;5052609;28;20378;-84
2021/12/23 12:14:40;;;;;;;32.73;17.33;;;-9.90;99.90;;;;;;5069485;28;20399;-82
2021/12/23 12:17:26;;;;;;;36.57;18.80;;;-9.90;99.90;;;;;;5051910;28;20785;-83
2021/12/23 12:20:24;;;;;;;36.00;18.20;;;-9.90;99.90;;;;;;5045741;28;20384;-84
2021/12/23 12:23:28;;;;;;;33.92;17.85;;;-9.80;99.90;;;;;;5050458;28;20952;-83
2021/12/23 12:25:58;;;;;;;32.17;17.65;;;-9.80;99.90;;;;;;5067931;28;20427;-83
2021/12/23 12:28:44;;;;;;;35.17;18.85;;;-9.80;99.90;;;;;;5073829;28;20944;-82
2021/12/23 12:31:22;;;;;;;33.78;18.00;;;-9.80;99.90;;;;;;5049342;28;20391;-83
2021/12/23 12:34:08;;;;;;;35.60;18.25;;;-9.70;99.90;;;;;;5053809;28;20478;-84
2021/12/23 12:36:45;;;;;;;36.45;19.40;;;-9.70;99.90;;;;;;5052446;28;20412;-84
2021/12/23 12:39:20;;;;;;;33.95;17.98;;;-9.70;99.90;;;;;;5052580;28;20411;-84
2021/12/23 12:41:48;;;;;;;36.92;19.70;;;-9.60;99.90;;;;;;5043066;28;20439;-84
2021/12/23 12:44:26;;;;;;;39.10;20.73;;;-9.60;99.90;;;;;;5057782;28;20458;-83
2021/12/23 12:47:13;;;;;;;34.88;19.30;;;-9.70;99.90;;;;;;5041889;28;20470;-84
2021/12/23 12:49:50;;;;;;;36.35;19.48;;;-9.60;99.90;;;;;;5041482;28;20512;-84
2021/12/23 12:52:35;;;;;;;37.42;20.88;;;-9.60;99.90;;;;;;5049942;28;20449;-83
2021/12/23 12:55:12;;;;;;;37.70;21.55;;;-9.60;99.90;;;;;;5058103;28;20435;-84
2021/12/23 12:57:51;;;;;;;34.78;19.30;;;-9.50;99.90;;;;;;5052607;28;20387;-84
2021/12/23 13:00:39;;;;;;;37.40;20.02;;;-9.50;99.90;;;;;;5049411;28;20453;-84
2021/12/23 13:03:17;;;;;;;39.03;20.88;;;-9.50;99.90;;;;;;5034720;28;20388;-84
2021/12/23 13:05:52;;;;;;;38.83;22.05;;;-9.40;99.90;;;;;;5045679;28;20906;-84
2021/12/23 13:08:32;;;;;;;44.47;23.33;;;-9.30;99.90;;;;;;5052870;28;20402;-83
2021/12/23 13:11:23;;;;;;;42.33;22.75;;;-9.30;99.90;;;;;;5052241;28;20403;-84
2021/12/23 13:14:01;;;;;;;42.07;23.30;;;-9.30;99.90;;;;;;5052575;28;20747;-84
2021/12/23 13:16:35;;;;;;;40.08;22.88;;;-9.30;99.90;;;;;;5050791;28;20921;-84
2021/12/23 13:19:36;;;;;;;44.63;23.98;;;-9.30;99.90;;;;;;5050306;28;20739;-84
2021/12/23 13:22:07;;;;;;;43.42;23.90;;;-9.20;99.90;;;;;;5032930;28;20408;-84
2021/12/23 13:24:36;;;;;;;39.83;23.00;;;-9.20;99.90;;;;;;5071188;28;20382;-82
2021/12/23 13:27:04;;;;;;;37.50;20.67;;;-9.20;99.90;;;;;;5058801;28;20665;-83
2021/12/23 13:29:33;;;;;;;39.40;22.15;;;-9.10;99.90;;;;;;5051402;28;20499;-84
2021/12/23 13:32:02;;;;;;;36.87;21.03;;;-9.10;99.90;;;;;;5067994;28;20486;-83
2021/12/23 13:34:33;;;;;;;41.55;23.27;;;-9.10;99.90;;;;;;5067972;28;20388;-83
2021/12/23 13:37:08;;;;;;;38.03;21.27;;;-9.10;99.90;;;;;;5051401;28;20403;-84
2021/12/23 13:39:42;;;;;;;38.22;20.95;;;-9.00;99.90;;;;;;5067805;28;20487;-83
2021/12/23 13:42:12;;;;;;;43.38;24.02;;;-9.00;99.90;;;;;;5067410;28;20859;-83